createdAt,value
2019-02-18T00:02:10.637Z,66.30
2019-02-18T00:04:39.208Z,67.70
2019-02-18T00:07:14.196Z,68.20
2019-02-18T00:09:37.695Z,69.10
2019-02-18T00:12:06.092Z,70.10
2019-02-18T00:14:34.483Z,71.20
2019-02-18T00:17:02.852Z,71.50
2019-02-18T00:19:31.236Z,71.30
2019-02-18T00:21:59.604Z,71.80
2019-02-18T00:24:27.992Z,72.50
2019-02-18T00:26:56.658Z,73.70
2019-02-18T00:29:25.048Z,74.70
2019-02-18T00:31:53.431Z,75.50
2019-02-18T00:34:21.804Z,75.30
2019-02-18T00:36:50.183Z,75.20
2019-02-18T00:39:18.560Z,74.80
2019-02-18T00:41:49.193Z,74.40
2019-02-18T00:44:17.039Z,74.70
2019-02-18T00:46:45.425Z,74.40
2019-02-18T00:49:13.809Z,75.10
2019-02-18T00:51:42.203Z,75.00
2019-02-18T00:54:10.596Z,74.80
2019-02-18T00:56:38.980Z,73.90
2019-02-18T00:59:07.360Z,71.10
2019-02-18T01:01:35.741Z,69.10
2019-02-18T01:04:04.121Z,68.10
2019-02-18T01:06:32.487Z,66.20
2019-02-18T01:09:00.940Z,64.50
2019-02-18T01:11:29.316Z,63.40
2019-02-18T01:13:57.710Z,62.10
2019-02-18T01:16:26.102Z,61.10
2019-02-18T01:18:54.475Z,60.50
2019-02-18T01:21:22.852Z,60.60
2019-02-18T01:23:51.247Z,60.50
2019-02-18T01:26:19.628Z,59.80
2019-02-18T01:28:48.003Z,60.90
2019-02-18T01:31:16.387Z,62.00
2019-02-18T01:33:44.780Z,63.20
2019-02-18T01:36:13.169Z,64.70
2019-02-18T01:38:41.544Z,65.50
2019-02-18T01:41:09.928Z,67.20
2019-02-18T01:43:38.307Z,67.20
2019-02-18T01:46:06.681Z,68.00
2019-02-18T01:48:35.073Z,69.20
2019-02-18T01:51:03.447Z,70.40
2019-02-18T01:53:31.837Z,71.60
2019-02-18T01:56:00.224Z,72.50
2019-02-18T01:58:28.596Z,73.00
2019-02-18T02:00:56.979Z,73.20
2019-02-18T02:03:25.404Z,73.50
2019-02-18T02:05:53.804Z,73.30
2019-02-18T02:08:22.191Z,73.30
2019-02-18T02:10:50.659Z,73.20
2019-02-18T02:13:32.787Z,73.40
2019-02-18T02:16:02.216Z,73.30
2019-02-18T02:18:30.595Z,73.30
2019-02-18T02:20:59.048Z,73.20
2019-02-18T02:23:27.420Z,73.30
2019-02-18T02:25:55.812Z,73.50
2019-02-18T02:28:24.255Z,73.70
2019-02-18T02:30:52.661Z,74.10
2019-02-18T02:33:21.036Z,74.40
2019-02-18T02:35:49.422Z,74.30
2019-02-18T02:38:17.795Z,74.50
2019-02-18T02:40:46.176Z,74.80
2019-02-18T02:43:14.557Z,75.20
2019-02-18T02:45:42.923Z,75.60
2019-02-18T02:48:11.315Z,76.20
2019-02-18T02:50:39.707Z,76.60
2019-02-18T02:53:08.109Z,76.80
2019-02-18T02:55:36.482Z,76.60
2019-02-18T02:58:04.859Z,76.60
2019-02-18T03:00:33.252Z,76.40
2019-02-18T03:03:01.631Z,76.20
2019-02-18T03:05:30.014Z,76.20
2019-02-18T03:07:58.407Z,76.20
2019-02-18T03:10:26.800Z,76.60
2019-02-18T03:12:55.173Z,76.60
2019-02-18T03:15:23.564Z,76.30
2019-02-18T03:17:51.936Z,76.40
2019-02-18T03:20:20.589Z,76.20
2019-02-18T03:22:48.958Z,76.00
2019-02-18T03:25:25.505Z,76.30
2019-02-18T03:28:06.260Z,76.40
2019-02-18T03:30:46.186Z,76.90
2019-02-18T03:33:38.939Z,77.10
2019-02-18T03:36:07.303Z,77.20
2019-02-18T03:38:35.690Z,77.70
2019-02-18T03:41:04.347Z,77.60
2019-02-18T03:43:32.793Z,77.10
2019-02-18T03:46:01.177Z,76.60
2019-02-18T03:48:29.559Z,76.00
2019-02-18T03:50:57.928Z,75.90
2019-02-18T03:53:26.325Z,75.60
2019-02-18T03:55:54.703Z,75.50
2019-02-18T03:58:23.089Z,75.90
2019-02-18T04:00:51.482Z,75.90
2019-02-18T04:03:19.856Z,75.80
2019-02-18T04:05:48.242Z,75.90
2019-02-18T04:08:16.643Z,77.10
2019-02-18T04:10:45.028Z,77.00
2019-02-18T04:13:13.392Z,77.70
2019-02-18T04:15:41.791Z,78.20
2019-02-18T04:18:10.192Z,78.40
2019-02-18T04:20:38.567Z,78.50
2019-02-18T04:23:06.939Z,78.60
2019-02-18T04:25:35.339Z,78.40
2019-02-18T04:28:03.701Z,78.10
2019-02-18T04:30:32.084Z,78.00
2019-02-18T04:33:00.459Z,77.70
2019-02-18T04:35:28.844Z,77.60
2019-02-18T04:37:57.217Z,77.70
2019-02-18T04:40:25.619Z,77.80
2019-02-18T04:42:54.022Z,78.20
2019-02-18T04:45:22.383Z,78.70
2019-02-18T04:47:50.791Z,78.70
2019-02-18T04:50:19.225Z,79.80
2019-02-18T04:52:47.629Z,80.30
2019-02-18T04:55:16.033Z,81.10
2019-02-18T04:57:44.401Z,81.70
2019-02-18T05:00:12.849Z,82.70
2019-02-18T05:02:41.236Z,84.00
2019-02-18T05:05:10.555Z,84.00
2019-02-18T05:07:38.939Z,83.90
2019-02-18T05:10:11.708Z,83.40
2019-02-18T05:12:40.093Z,83.10
2019-02-18T05:15:09.211Z,82.80
2019-02-18T05:17:37.591Z,83.10
2019-02-18T05:20:08.188Z,83.50
2019-02-18T05:22:36.569Z,83.50
2019-02-18T05:25:09.287Z,83.20
2019-02-18T05:27:37.928Z,82.70
2019-02-18T05:30:09.355Z,82.40
2019-02-18T05:32:37.732Z,82.40
2019-02-18T05:35:07.356Z,82.40
2019-02-18T05:37:35.795Z,82.50
2019-02-18T05:40:05.916Z,83.00
2019-02-18T05:42:34.303Z,83.50
2019-02-18T05:45:02.766Z,84.30
2019-02-18T05:47:31.140Z,85.20
2019-02-18T05:49:59.514Z,86.30
2019-02-18T05:52:27.899Z,87.00
2019-02-18T05:54:56.275Z,87.20
2019-02-18T05:57:24.730Z,88.60
2019-02-18T05:59:53.117Z,90.10
2019-02-18T06:02:22.263Z,90.30
2019-02-18T06:04:50.644Z,90.50
2019-02-18T06:07:19.026Z,90.50
2019-02-18T06:09:47.404Z,90.40
2019-02-18T06:12:15.779Z,90.50
2019-02-18T06:14:44.246Z,90.50
2019-02-18T06:17:12.625Z,90.70
2019-02-18T06:19:41.008Z,90.80
2019-02-18T06:22:09.383Z,90.80
2019-02-18T06:24:37.768Z,90.60
2019-02-18T06:27:06.156Z,90.40
2019-02-18T06:29:34.530Z,90.40
2019-02-18T06:32:02.916Z,90.90
2019-02-18T06:34:31.290Z,91.00
2019-02-18T06:36:59.672Z,90.90
2019-02-18T06:39:28.060Z,91.00
2019-02-18T06:41:56.444Z,90.90
2019-02-18T06:44:26.467Z,91.00
2019-02-18T06:46:56.504Z,90.80
2019-02-18T06:49:24.880Z,90.50
2019-02-18T06:51:53.252Z,90.20
2019-02-18T06:54:21.639Z,90.10
2019-02-18T06:56:54.555Z,90.00
2019-02-18T06:59:44.040Z,90.00
2019-02-18T07:02:16.467Z,89.80
2019-02-18T07:04:46.496Z,89.90
2019-02-18T07:07:16.507Z,89.80
2019-02-18T07:09:51.322Z,89.60
2019-02-18T07:12:18.293Z,89.40
2019-02-18T07:14:46.655Z,89.20
2019-02-18T07:17:15.041Z,89.20
2019-02-18T07:19:43.415Z,88.90
2019-02-18T07:22:11.868Z,88.70
2019-02-18T07:24:40.248Z,89.10
2019-02-18T07:27:08.620Z,88.40
2019-02-18T07:29:37.004Z,87.50
2019-02-18T07:32:05.375Z,86.80
2019-02-18T07:34:33.765Z,87.00
2019-02-18T07:37:02.212Z,86.60
2019-02-18T07:39:30.591Z,86.20
2019-02-18T07:41:58.971Z,86.20
2019-02-18T07:44:27.364Z,86.10
2019-02-18T07:46:55.739Z,86.40
2019-02-18T07:49:24.139Z,86.40
2019-02-18T07:51:52.512Z,85.50
2019-02-18T07:54:20.887Z,85.00
2019-02-18T07:56:49.268Z,85.20
2019-02-18T07:59:17.644Z,84.90
2019-02-18T08:01:46.033Z,85.10
2019-02-18T08:04:14.414Z,84.30
2019-02-18T08:06:42.793Z,78.90
2019-02-18T08:09:11.167Z,72.20
2019-02-18T08:11:39.574Z,66.80
2019-02-18T08:14:07.947Z,61.00
2019-02-18T08:16:36.323Z,56.30
2019-02-18T08:19:04.712Z,53.10
2019-02-18T08:21:33.104Z,50.80
2019-02-18T08:24:01.497Z,48.20
2019-02-18T08:26:29.895Z,46.80
2019-02-18T08:28:58.271Z,45.20
2019-02-18T08:31:26.668Z,43.30
2019-02-18T08:33:55.064Z,40.90
2019-02-18T08:36:23.452Z,40.50
2019-02-18T08:38:51.831Z,41.80
2019-02-18T08:41:20.221Z,41.40
2019-02-18T08:43:48.595Z,40.00
2019-02-18T08:46:16.984Z,39.20
2019-02-18T08:48:45.376Z,39.70
2019-02-18T08:51:13.764Z,39.10
2019-02-18T08:53:42.147Z,39.80
2019-02-18T08:56:10.528Z,39.50
2019-02-18T08:58:38.913Z,39.50
2019-02-18T09:01:07.288Z,39.50
2019-02-18T09:03:35.676Z,39.50
2019-02-18T09:06:04.060Z,40.90
2019-02-18T09:08:32.439Z,41.30
2019-02-18T09:11:00.827Z,41.30
2019-02-18T09:13:29.205Z,41.40
2019-02-18T09:16:00.148Z,41.40
2019-02-18T09:18:27.703Z,41.90
2019-02-18T09:20:56.080Z,42.40
2019-02-18T09:23:26.112Z,41.30
2019-02-18T09:25:54.500Z,40.70
2019-02-18T09:28:22.887Z,41.00
2019-02-18T09:30:52.455Z,41.40
2019-02-18T09:33:20.855Z,41.10
2019-02-18T09:35:49.223Z,41.00
2019-02-18T09:38:24.975Z,41.00
2019-02-18T09:40:51.433Z,40.40
2019-02-18T09:43:17.837Z,41.20
2019-02-18T09:45:46.233Z,40.20
2019-02-18T09:48:14.607Z,39.30
2019-02-18T09:50:42.988Z,38.60
2019-02-18T09:53:11.406Z,38.20
2019-02-18T09:55:39.779Z,37.60
2019-02-18T09:58:08.172Z,37.30
2019-02-18T10:00:36.577Z,37.90
2019-02-18T10:03:05.024Z,37.30
2019-02-18T10:05:33.405Z,36.70
2019-02-18T10:08:01.841Z,36.00
2019-02-18T10:10:30.215Z,35.30
2019-02-18T10:12:59.653Z,35.20
2019-02-18T10:15:28.311Z,33.60
2019-02-18T10:17:56.762Z,32.70
2019-02-18T10:20:25.169Z,33.00
2019-02-18T10:22:53.551Z,32.70
2019-02-18T10:25:21.955Z,31.80
2019-02-18T10:27:50.345Z,30.40
2019-02-18T10:30:20.679Z,30.10
2019-02-18T10:32:48.845Z,29.50
2019-02-18T10:35:17.236Z,29.30
2019-02-18T10:37:54.677Z,30.00
2019-02-18T10:40:15.952Z,29.80
2019-02-18T10:42:44.340Z,29.30
2019-02-18T10:45:13.205Z,29.30
2019-02-18T10:47:41.588Z,30.00
2019-02-18T10:50:11.407Z,29.10
2019-02-18T10:52:39.796Z,28.80
2019-02-18T10:55:10.593Z,28.90
2019-02-18T10:57:39.415Z,29.00
2019-02-18T11:00:11.116Z,29.60
2019-02-18T11:02:39.504Z,29.50
2019-02-18T11:05:08.419Z,29.40
2019-02-18T11:07:36.813Z,30.00
2019-02-18T11:10:16.103Z,29.30
2019-02-18T11:12:44.491Z,29.10
2019-02-18T11:15:14.011Z,29.10
2019-02-18T11:17:42.779Z,29.10
2019-02-18T11:20:12.201Z,29.70
2019-02-18T11:22:40.610Z,28.10
2019-02-18T11:25:14.449Z,26.50
2019-02-18T11:27:42.843Z,26.90
2019-02-18T11:30:15.964Z,26.30
2019-02-18T11:32:44.371Z,25.50
2019-02-18T11:35:12.907Z,24.90
2019-02-18T11:37:41.287Z,24.70
2019-02-18T11:40:14.855Z,24.40
2019-02-18T11:42:43.241Z,23.90
2019-02-18T11:45:16.037Z,24.10
2019-02-18T11:47:44.419Z,23.50
2019-02-18T11:50:14.808Z,23.50
2019-02-18T11:52:43.207Z,23.80
2019-02-18T11:55:12.938Z,24.30
2019-02-18T11:57:41.818Z,24.60
2019-02-18T12:00:15.033Z,24.60
2019-02-18T12:02:43.417Z,23.80
2019-02-18T12:05:12.162Z,24.10
2019-02-18T12:07:40.553Z,23.80
2019-02-18T12:10:13.389Z,24.30
2019-02-18T12:12:42.059Z,23.70
2019-02-18T12:15:14.824Z,23.40
2019-02-18T12:17:43.227Z,23.10
2019-02-18T12:20:13.151Z,23.50
2019-02-18T12:22:41.598Z,23.00
2019-02-18T12:25:10.940Z,22.00
2019-02-18T12:27:39.693Z,22.80
2019-02-18T12:30:16.246Z,23.60
2019-02-18T12:32:44.787Z,23.00
2019-02-18T12:35:13.243Z,22.90
2019-02-18T12:37:41.619Z,22.80
2019-02-18T12:40:13.772Z,22.00
2019-02-18T12:42:42.646Z,21.50
2019-02-18T12:45:14.254Z,22.00
2019-02-18T12:47:42.759Z,22.20
2019-02-18T12:50:12.200Z,22.40
2019-02-18T12:52:40.655Z,22.00
2019-02-18T12:55:10.544Z,21.50
2019-02-18T12:57:39.224Z,21.50
2019-02-18T13:00:13.898Z,21.90
2019-02-18T13:03:01.858Z,21.30
2019-02-18T13:05:30.328Z,20.40
2019-02-18T13:07:58.711Z,19.70
2019-02-18T13:10:34.550Z,20.10
2019-02-18T13:12:57.279Z,20.10
2019-02-18T13:15:25.688Z,20.50
2019-02-18T13:17:54.071Z,20.20
2019-02-18T13:20:22.451Z,20.30
2019-02-18T13:22:50.839Z,20.50
2019-02-18T13:25:19.219Z,21.30
2019-02-18T13:27:47.991Z,20.60
2019-02-18T13:30:18.607Z,20.90
2019-02-18T13:32:46.989Z,20.00
2019-02-18T13:35:15.379Z,20.90
2019-02-18T13:37:43.760Z,21.90
2019-02-18T13:40:16.843Z,21.60
2019-02-18T13:42:45.659Z,22.80
2019-02-18T13:45:14.115Z,23.10
2019-02-18T13:47:42.567Z,23.10
2019-02-18T13:50:12.967Z,23.20
2019-02-18T13:52:41.480Z,22.70
2019-02-18T13:55:12.179Z,22.90
2019-02-18T13:57:41.376Z,23.10
2019-02-18T14:00:17.083Z,23.50
2019-02-18T14:02:45.528Z,22.90
2019-02-18T14:05:13.977Z,22.30
2019-02-18T14:07:42.359Z,22.00
2019-02-18T14:10:10.811Z,22.90
2019-02-18T14:12:39.560Z,23.20
2019-02-18T14:15:10.595Z,22.30
2019-02-18T14:17:39.059Z,22.90
2019-02-18T14:20:15.307Z,22.80
2019-02-18T14:22:43.771Z,23.70
2019-02-18T14:25:13.559Z,25.30
2019-02-18T14:27:41.940Z,26.00
2019-02-18T14:30:15.428Z,26.20
2019-02-18T14:32:43.807Z,26.00
2019-02-18T14:35:12.267Z,27.80
2019-02-18T14:37:40.640Z,27.50
2019-02-18T14:40:11.215Z,26.80
2019-02-18T14:42:39.665Z,25.60
2019-02-18T14:45:09.092Z,25.90
2019-02-18T14:47:37.475Z,25.70
2019-02-18T14:50:10.547Z,24.90
2019-02-18T14:52:38.939Z,25.30
2019-02-18T14:55:08.835Z,26.00
2019-02-18T14:57:37.219Z,27.20
2019-02-18T15:00:20.617Z,26.40
2019-02-18T15:02:49.727Z,25.90
2019-02-18T15:05:19.015Z,25.50
2019-02-18T15:07:47.455Z,25.40
2019-02-18T15:10:16.200Z,24.50
2019-02-18T15:12:44.591Z,24.50
2019-02-18T15:15:13.308Z,24.50
2019-02-18T15:17:41.695Z,25.00
2019-02-18T15:20:11.499Z,24.50
2019-02-18T15:22:40.288Z,24.80
2019-02-18T15:25:10.112Z,25.20
2019-02-18T15:27:38.547Z,25.60
2019-02-18T15:30:10.038Z,25.40
2019-02-18T15:32:38.483Z,25.90
2019-02-18T15:35:07.051Z,26.40
2019-02-18T15:37:35.928Z,26.10
2019-02-18T15:40:06.816Z,26.90
2019-02-18T15:42:41.836Z,27.60
2019-02-18T15:45:06.344Z,28.50
2019-02-18T15:47:34.735Z,31.20
2019-02-18T15:50:03.881Z,30.80
2019-02-18T15:52:32.339Z,31.10
2019-02-18T15:55:00.766Z,29.00
2019-02-18T15:57:29.135Z,28.70
2019-02-18T15:59:57.532Z,29.80
2019-02-18T16:02:25.915Z,31.60
2019-02-18T16:04:54.291Z,32.20
2019-02-18T16:07:23.051Z,31.40
2019-02-18T16:09:51.433Z,31.70
2019-02-18T16:12:19.824Z,34.20
2019-02-18T16:14:48.476Z,35.30
2019-02-18T16:17:16.855Z,36.20
2019-02-18T16:19:45.238Z,36.90
2019-02-18T16:22:13.619Z,36.60
2019-02-18T16:24:42.288Z,37.80
2019-02-18T16:27:10.676Z,40.70
2019-02-18T16:29:39.067Z,44.90
2019-02-18T16:32:07.459Z,44.90
2019-02-18T16:34:35.828Z,44.90
2019-02-18T16:37:04.660Z,45.80
2019-02-18T16:39:33.045Z,46.00
2019-02-18T16:42:01.708Z,46.80
2019-02-18T16:44:30.083Z,47.80
2019-02-18T16:46:58.471Z,49.40
2019-02-18T16:49:26.856Z,50.80
2019-02-18T16:51:55.247Z,50.90
2019-02-18T16:54:23.904Z,52.10
2019-02-18T16:56:52.290Z,53.20
2019-02-18T16:59:20.675Z,54.10
2019-02-18T17:01:49.055Z,54.60
2019-02-18T17:04:17.436Z,54.20
2019-02-18T17:06:45.831Z,55.60
2019-02-18T17:09:14.284Z,55.80
2019-02-18T17:11:42.699Z,55.90
2019-02-18T17:14:11.093Z,57.30
2019-02-18T17:16:39.471Z,57.00
2019-02-18T17:19:07.864Z,57.60
2019-02-18T17:21:36.247Z,58.30
2019-02-18T17:24:04.644Z,59.10
2019-02-18T17:26:33.499Z,59.80
2019-02-18T17:29:01.887Z,60.30
2019-02-18T17:31:30.262Z,60.10
2019-02-18T17:33:58.652Z,59.50
2019-02-18T17:36:27.027Z,59.70
2019-02-18T17:38:55.496Z,59.70
2019-02-18T17:41:23.964Z,59.60
2019-02-18T17:43:52.749Z,59.10
2019-02-18T17:46:21.196Z,59.60
2019-02-18T17:48:49.583Z,60.10
2019-02-18T17:51:17.959Z,60.80
2019-02-18T17:53:46.335Z,61.60
2019-02-18T17:56:14.731Z,61.10
2019-02-18T17:58:43.118Z,62.10
2019-02-18T18:01:11.499Z,61.90
2019-02-18T18:03:39.884Z,61.80
2019-02-18T18:06:08.264Z,61.60
2019-02-18T18:08:36.643Z,62.00
2019-02-18T18:11:05.032Z,62.00
2019-02-18T18:13:33.413Z,63.20
2019-02-18T18:16:02.571Z,62.00
2019-02-18T18:18:30.982Z,63.20
2019-02-18T18:20:59.368Z,63.90
2019-02-18T18:23:27.747Z,63.60
2019-02-18T18:25:56.135Z,64.20
2019-02-18T18:28:24.519Z,63.80
2019-02-18T18:30:52.895Z,63.60
2019-02-18T18:33:21.289Z,65.10
2019-02-18T18:35:49.696Z,64.10
2019-02-18T18:38:18.076Z,64.30
2019-02-18T18:40:46.456Z,63.30
2019-02-18T18:43:14.908Z,64.50
2019-02-18T18:46:02.631Z,63.90
2019-02-18T18:48:31.017Z,64.20
2019-02-18T18:50:59.389Z,64.50
2019-02-18T18:53:27.783Z,64.00
2019-02-18T18:55:56.160Z,64.40
2019-02-18T18:58:24.539Z,65.20
2019-02-18T19:00:52.931Z,65.50
2019-02-18T19:03:21.329Z,66.10
2019-02-18T19:05:49.702Z,66.20
2019-02-18T19:08:18.079Z,66.00
2019-02-18T19:10:46.462Z,65.40
2019-02-18T19:13:14.843Z,64.80
2019-02-18T19:15:49.481Z,64.50
2019-02-18T19:18:13.320Z,64.90
2019-02-18T19:20:41.712Z,66.10
2019-02-18T19:23:10.104Z,66.20
2019-02-18T19:25:38.484Z,66.10
2019-02-18T19:28:06.871Z,66.60
2019-02-18T19:30:35.242Z,66.90
2019-02-18T19:33:03.612Z,66.90
2019-02-18T19:35:32.000Z,67.40
2019-02-18T19:38:00.371Z,67.00
2019-02-18T19:40:28.752Z,67.40
2019-02-18T19:42:57.139Z,67.50
2019-02-18T19:45:25.692Z,67.50
2019-02-18T19:47:54.080Z,67.40
2019-02-18T19:50:22.447Z,68.10
2019-02-18T19:52:50.829Z,68.40
2019-02-18T19:55:19.280Z,69.20
2019-02-18T19:57:47.662Z,69.30
2019-02-18T20:00:18.540Z,69.10
2019-02-18T20:02:46.979Z,69.10
2019-02-18T20:05:15.435Z,69.40
2019-02-18T20:07:44.313Z,69.40
2019-02-18T20:10:13.607Z,69.30
2019-02-18T20:12:41.979Z,69.60
2019-02-18T20:15:13.052Z,69.20
2019-02-18T20:17:41.433Z,69.20
2019-02-18T20:20:12.048Z,68.10
2019-02-18T20:22:40.499Z,67.90
2019-02-18T20:25:09.519Z,67.90
2019-02-18T20:27:37.901Z,68.80
2019-02-18T20:30:09.873Z,68.10
2019-02-18T20:32:38.243Z,68.50
2019-02-18T20:35:08.162Z,68.50
2019-02-18T20:37:36.549Z,68.80
2019-02-18T20:40:06.382Z,69.20
2019-02-18T20:42:34.751Z,69.10
2019-02-18T20:45:03.204Z,69.20
2019-02-18T20:47:31.583Z,70.10
2019-02-18T20:49:59.959Z,70.00
2019-02-18T20:52:28.342Z,70.10
2019-02-18T20:54:56.800Z,70.30
2019-02-18T20:57:25.182Z,70.20
2019-02-18T20:59:53.937Z,69.90
2019-02-18T21:02:22.319Z,69.20
2019-02-18T21:04:50.696Z,68.90
2019-02-18T21:07:19.088Z,69.20
2019-02-18T21:09:47.460Z,69.40
2019-02-18T21:12:19.888Z,69.60
2019-02-18T21:14:45.972Z,70.20
2019-02-18T21:17:14.348Z,70.50
2019-02-18T21:19:42.720Z,71.00
2019-02-18T21:22:11.108Z,71.30
2019-02-18T21:24:39.490Z,71.30
2019-02-18T21:27:07.860Z,71.00
2019-02-18T21:29:36.248Z,70.60
2019-02-18T21:32:04.628Z,70.70
2019-02-18T21:34:33.003Z,70.90
2019-02-18T21:37:01.380Z,70.90
2019-02-18T21:39:29.748Z,71.30
2019-02-18T21:41:58.140Z,71.30
2019-02-18T21:44:27.088Z,71.10
2019-02-18T21:46:56.279Z,70.60
2019-02-18T21:49:24.659Z,70.90
2019-02-18T21:51:53.035Z,71.30
2019-02-18T21:54:21.404Z,70.80
2019-02-18T21:56:49.791Z,71.00
2019-02-18T21:59:18.159Z,70.70
2019-02-18T22:01:46.928Z,70.20
2019-02-18T22:04:15.303Z,70.50
2019-02-18T22:06:43.701Z,70.60
2019-02-18T22:09:12.076Z,70.20
2019-02-18T22:11:40.458Z,69.80
2019-02-18T22:14:08.829Z,70.20
2019-02-18T22:16:37.226Z,70.00
2019-02-18T22:19:05.871Z,69.80
2019-02-18T22:21:34.250Z,70.50
2019-02-18T22:24:02.647Z,70.40
2019-02-18T22:26:31.019Z,70.80
2019-02-18T22:28:59.397Z,70.90
2019-02-18T22:31:27.783Z,71.30
2019-02-18T22:33:56.166Z,71.00
2019-02-18T22:36:24.820Z,71.40
2019-02-18T22:38:53.220Z,71.40
2019-02-18T22:41:21.592Z,71.50
2019-02-18T22:43:49.971Z,71.50
2019-02-18T22:46:18.359Z,71.50
2019-02-18T22:48:46.731Z,71.90
2019-02-18T22:51:15.112Z,71.90
2019-02-18T22:53:43.878Z,71.60
2019-02-18T22:56:12.255Z,71.50
2019-02-18T22:58:40.643Z,71.40
2019-02-18T23:01:09.384Z,71.40
2019-02-18T23:03:37.759Z,71.90
2019-02-18T23:06:06.154Z,72.00
2019-02-18T23:08:34.538Z,72.50
2019-02-18T23:11:03.282Z,72.40
2019-02-18T23:13:31.666Z,72.60
2019-02-18T23:16:00.113Z,72.60
2019-02-18T23:18:28.491Z,72.10
2019-02-18T23:20:56.879Z,72.20
2019-02-18T23:23:25.259Z,71.60
2019-02-18T23:25:53.635Z,71.90
2019-02-18T23:28:22.013Z,71.70
2019-02-18T23:30:50.387Z,71.60
2019-02-18T23:33:18.763Z,71.00
2019-02-18T23:35:47.208Z,71.00
2019-02-18T23:38:15.593Z,70.20
2019-02-18T23:40:43.967Z,70.10
2019-02-18T23:43:12.353Z,70.10
2019-02-18T23:45:40.719Z,70.30
2019-02-18T23:48:09.099Z,70.10
2019-02-18T23:50:37.472Z,69.80
2019-02-18T23:53:05.852Z,69.70
2019-02-18T23:55:34.224Z,69.90
2019-02-18T23:58:02.603Z,69.10
